createdAt,value
2018-02-16T00:01:58.142Z,42.90
2018-02-16T00:04:01.506Z,42.80
2018-02-16T00:06:05.657Z,42.90
2018-02-16T00:08:09.110Z,42.90
2018-02-16T00:10:13.251Z,42.90
2018-02-16T00:12:16.703Z,42.90
2018-02-16T00:14:20.856Z,42.90
2018-02-16T00:16:24.407Z,42.90
2018-02-16T00:18:28.546Z,42.90
2018-02-16T00:20:31.920Z,42.90
2018-02-16T00:22:36.177Z,43.00
2018-02-16T00:24:39.739Z,43.00
2018-02-16T00:26:43.316Z,43.00
2018-02-16T00:28:46.623Z,43.00
2018-02-16T00:30:50.425Z,42.90
2018-02-16T00:32:54.134Z,43.00
2018-02-16T00:34:57.551Z,43.00
2018-02-16T00:37:01.082Z,43.00
2018-02-16T00:39:04.871Z,43.30
2018-02-16T00:41:09.772Z,43.00
2018-02-16T00:43:13.254Z,43.00
2018-02-16T00:45:16.633Z,43.00
2018-02-16T00:47:20.022Z,43.00
2018-02-16T00:49:24.260Z,43.00
2018-02-16T00:51:27.854Z,42.90
2018-02-16T00:53:31.481Z,42.90
2018-02-16T00:55:34.886Z,43.00
2018-02-16T00:57:38.317Z,43.00
2018-02-16T00:59:41.764Z,43.00
2018-02-16T01:01:45.249Z,43.00
2018-02-16T01:03:48.738Z,43.00
2018-02-16T01:05:52.145Z,42.90
2018-02-16T01:07:55.529Z,42.90
2018-02-16T01:09:58.922Z,43.00
2018-02-16T01:12:02.312Z,43.00
2018-02-16T01:14:05.734Z,43.00
2018-02-16T01:16:09.924Z,43.00
2018-02-16T01:18:13.290Z,43.00
2018-02-16T01:20:16.708Z,43.00
2018-02-16T01:22:20.118Z,43.00
2018-02-16T01:24:23.523Z,43.00
2018-02-16T01:26:27.796Z,43.30
2018-02-16T01:28:31.157Z,43.00
2018-02-16T01:30:34.597Z,43.00
2018-02-16T01:32:38.081Z,43.00
2018-02-16T01:34:41.510Z,43.00
2018-02-16T01:36:45.696Z,43.00
2018-02-16T01:38:49.261Z,43.00
2018-02-16T01:40:52.822Z,43.00
2018-02-16T01:42:56.233Z,43.00
2018-02-16T01:44:59.696Z,43.00
2018-02-16T01:47:03.862Z,43.00
2018-02-16T01:49:07.316Z,43.00
2018-02-16T01:51:11.019Z,43.00
2018-02-16T01:53:15.198Z,43.00
2018-02-16T01:55:18.677Z,42.90
2018-02-16T01:57:23.629Z,43.00
2018-02-16T01:59:27.112Z,43.00
2018-02-16T02:01:30.750Z,43.00
2018-02-16T02:03:34.163Z,43.00
2018-02-16T02:05:37.550Z,43.00
2018-02-16T02:07:40.953Z,43.00
2018-02-16T02:09:44.463Z,43.00
2018-02-16T02:11:47.885Z,43.00
2018-02-16T02:13:52.049Z,43.10
2018-02-16T02:15:55.430Z,43.10
2018-02-16T02:17:58.842Z,43.10
2018-02-16T02:20:02.209Z,43.00
2018-02-16T02:22:05.784Z,43.00
2018-02-16T02:24:10.020Z,43.00
2018-02-16T02:26:13.632Z,43.00
2018-02-16T02:28:17.012Z,43.00
2018-02-16T02:30:20.478Z,43.10
2018-02-16T02:32:24.193Z,43.00
2018-02-16T02:34:27.669Z,43.00
2018-02-16T02:36:32.071Z,43.10
2018-02-16T02:38:35.517Z,43.10
2018-02-16T02:40:38.915Z,43.10
2018-02-16T02:42:42.466Z,43.00
2018-02-16T02:44:47.363Z,43.20
2018-02-16T02:46:50.844Z,43.10
2018-02-16T02:48:54.221Z,43.00
2018-02-16T02:50:57.619Z,42.90
2018-02-16T02:53:01.013Z,43.00
2018-02-16T02:55:04.480Z,43.10
2018-02-16T02:57:07.868Z,43.00
2018-02-16T02:59:12.009Z,43.00
2018-02-16T03:01:15.421Z,43.00
2018-02-16T03:03:18.836Z,43.00
2018-02-16T03:05:23.027Z,43.00
2018-02-16T03:07:27.192Z,43.00
2018-02-16T03:09:30.585Z,43.00
2018-02-16T03:11:34.045Z,43.10
2018-02-16T03:13:37.413Z,43.10
2018-02-16T03:15:40.839Z,43.70
2018-02-16T03:17:45.024Z,43.00
2018-02-16T03:19:49.157Z,43.00
2018-02-16T03:21:53.324Z,43.00
2018-02-16T03:23:56.707Z,43.00
2018-02-16T03:26:00.145Z,43.00
2018-02-16T03:28:03.557Z,43.00
2018-02-16T03:30:07.701Z,43.00
2018-02-16T03:32:11.114Z,43.00
2018-02-16T03:34:15.257Z,43.00
2018-02-16T03:36:21.305Z,43.00
2018-02-16T03:38:24.677Z,43.00
2018-02-16T03:40:28.064Z,43.00
2018-02-16T03:42:31.493Z,43.10
2018-02-16T03:44:35.777Z,43.10
2018-02-16T03:46:39.141Z,43.10
2018-02-16T03:48:42.514Z,43.00
2018-02-16T03:50:45.936Z,43.00
2018-02-16T03:52:49.353Z,43.00
2018-02-16T03:54:52.726Z,43.10
2018-02-16T03:56:56.108Z,43.00
2018-02-16T03:58:59.500Z,43.00
2018-02-16T04:01:02.893Z,43.00
2018-02-16T04:03:06.318Z,43.10
2018-02-16T04:05:09.684Z,43.10
2018-02-16T04:07:13.089Z,43.10
2018-02-16T04:09:16.456Z,43.10
2018-02-16T04:11:19.826Z,43.10
2018-02-16T04:13:23.260Z,43.00
2018-02-16T04:15:26.471Z,42.90
2018-02-16T04:17:29.885Z,42.90
2018-02-16T04:19:34.073Z,42.80
2018-02-16T04:21:37.474Z,42.80
2018-02-16T04:23:40.882Z,42.70
2018-02-16T04:25:44.276Z,42.60
2018-02-16T04:27:47.709Z,43.10
2018-02-16T04:29:51.169Z,42.30
2018-02-16T04:31:54.540Z,42.10
2018-02-16T04:33:57.932Z,41.90
2018-02-16T04:36:01.315Z,41.70
2018-02-16T04:38:04.705Z,41.50
2018-02-16T04:40:08.138Z,41.30
2018-02-16T04:42:12.307Z,41.00
2018-02-16T04:44:15.675Z,41.00
2018-02-16T04:46:19.057Z,40.80
2018-02-16T04:48:22.434Z,40.70
2018-02-16T04:50:25.849Z,40.50
2018-02-16T04:52:29.234Z,40.30
2018-02-16T04:54:32.673Z,40.40
2018-02-16T04:56:36.832Z,40.10
2018-02-16T04:58:40.196Z,40.00
2018-02-16T05:00:44.371Z,39.90
2018-02-16T05:02:47.836Z,39.90
2018-02-16T05:04:51.220Z,39.80
2018-02-16T05:06:54.607Z,39.70
2018-02-16T05:08:58.004Z,39.60
2018-02-16T05:11:01.399Z,39.60
2018-02-16T05:13:04.765Z,39.60
2018-02-16T05:15:08.920Z,39.40
2018-02-16T05:17:12.289Z,39.50
2018-02-16T05:19:15.662Z,39.40
2018-02-16T05:21:19.901Z,39.20
2018-02-16T05:23:23.310Z,39.20
2018-02-16T05:25:26.682Z,39.20
2018-02-16T05:27:30.093Z,39.20
2018-02-16T05:29:33.479Z,39.10
2018-02-16T05:31:36.964Z,39.10
2018-02-16T05:33:40.351Z,39.30
2018-02-16T05:35:43.729Z,39.30
2018-02-16T05:37:47.857Z,39.30
2018-02-16T05:39:51.227Z,39.20
2018-02-16T05:41:55.427Z,39.10
2018-02-16T05:43:58.946Z,39.10
2018-02-16T05:46:02.382Z,39.10
2018-02-16T05:48:05.745Z,39.00
2018-02-16T05:50:09.222Z,38.80
2018-02-16T05:52:12.638Z,38.80
2018-02-16T05:54:16.810Z,38.70
2018-02-16T05:56:20.961Z,38.70
2018-02-16T05:58:24.334Z,38.70
2018-02-16T06:00:27.746Z,38.60
2018-02-16T06:02:31.229Z,38.70
2018-02-16T06:04:34.615Z,38.80
2018-02-16T06:06:38.014Z,38.80
2018-02-16T06:08:41.412Z,38.90
2018-02-16T06:10:44.774Z,39.00
2018-02-16T06:12:48.904Z,39.20
2018-02-16T06:14:52.326Z,39.20
2018-02-16T06:16:55.719Z,39.40
2018-02-16T06:18:59.113Z,39.60
2018-02-16T06:21:02.529Z,39.60
2018-02-16T06:23:06.030Z,39.70
2018-02-16T06:25:09.492Z,39.90
2018-02-16T06:27:12.844Z,40.00
2018-02-16T06:29:16.262Z,40.10
2018-02-16T06:31:19.659Z,40.30
2018-02-16T06:33:23.055Z,40.40
2018-02-16T06:35:26.439Z,40.50
2018-02-16T06:37:29.829Z,40.70
2018-02-16T06:39:33.263Z,40.80
2018-02-16T06:41:36.641Z,40.90
2018-02-16T06:43:40.059Z,41.00
2018-02-16T06:45:44.260Z,41.20
2018-02-16T06:47:48.405Z,41.50
2018-02-16T06:49:51.913Z,41.30
2018-02-16T06:51:55.283Z,41.30
2018-02-16T06:53:59.444Z,41.60
2018-02-16T06:56:02.872Z,41.50
2018-02-16T06:58:06.249Z,41.60
2018-02-16T07:00:09.694Z,41.70
2018-02-16T07:02:13.085Z,41.70
2018-02-16T07:04:16.468Z,41.90
2018-02-16T07:06:19.844Z,41.90
2018-02-16T07:08:23.268Z,42.00
2018-02-16T07:10:26.680Z,42.00
2018-02-16T07:12:30.046Z,42.10
2018-02-16T07:14:33.439Z,42.10
2018-02-16T07:16:36.835Z,42.10
2018-02-16T07:18:40.197Z,42.10
2018-02-16T07:20:44.344Z,42.30
2018-02-16T07:22:47.751Z,42.10
2018-02-16T07:24:51.285Z,42.20
2018-02-16T07:26:54.702Z,42.30
2018-02-16T07:28:58.081Z,42.30
2018-02-16T07:31:02.228Z,42.40
2018-02-16T07:33:05.621Z,42.30
2018-02-16T07:35:09.018Z,42.40
2018-02-16T07:37:12.434Z,42.40
2018-02-16T07:39:15.837Z,42.40
2018-02-16T07:41:19.205Z,42.40
2018-02-16T07:43:23.672Z,42.50
2018-02-16T07:45:27.822Z,42.50
2018-02-16T07:47:31.246Z,42.50
2018-02-16T07:49:34.621Z,42.50
2018-02-16T07:51:38.028Z,42.60
2018-02-16T07:53:41.404Z,42.60
2018-02-16T07:55:44.789Z,42.60
2018-02-16T07:57:48.182Z,42.60
2018-02-16T07:59:51.584Z,42.60
2018-02-16T08:01:54.947Z,42.70
2018-02-16T08:03:58.350Z,42.70
2018-02-16T08:06:01.716Z,42.70
2018-02-16T08:08:05.136Z,42.80
2018-02-16T08:10:08.521Z,42.80
2018-02-16T08:12:11.965Z,42.70
2018-02-16T08:14:15.332Z,42.70
2018-02-16T08:16:18.714Z,42.80
2018-02-16T08:18:22.122Z,42.80
2018-02-16T08:20:25.507Z,42.80
2018-02-16T08:22:28.874Z,42.70
2018-02-16T08:24:32.249Z,42.70
2018-02-16T08:26:35.601Z,42.80
2018-02-16T08:28:39.029Z,42.80
2018-02-16T08:30:42.437Z,42.90
2018-02-16T08:32:45.798Z,42.90
2018-02-16T08:34:49.932Z,42.80
2018-02-16T08:36:53.325Z,42.80
2018-02-16T08:38:56.731Z,42.80
2018-02-16T08:41:00.122Z,42.80
2018-02-16T08:43:03.351Z,42.90
2018-02-16T08:45:06.734Z,42.90
2018-02-16T08:47:10.143Z,42.90
2018-02-16T08:49:13.565Z,43.00
2018-02-16T08:51:16.777Z,42.90
2018-02-16T08:53:20.149Z,42.90
2018-02-16T08:55:23.541Z,42.90
2018-02-16T08:57:26.935Z,43.00
2018-02-16T08:59:30.192Z,43.00
2018-02-16T09:01:34.386Z,43.00
2018-02-16T09:03:37.926Z,43.00
2018-02-16T09:05:42.078Z,43.00
2018-02-16T09:07:45.465Z,43.00
2018-02-16T09:09:48.921Z,43.10
2018-02-16T09:11:52.320Z,43.10
2018-02-16T09:13:55.686Z,43.00
2018-02-16T09:15:59.059Z,43.00
2018-02-16T09:18:02.466Z,43.00
2018-02-16T09:20:05.926Z,43.00
2018-02-16T09:22:09.311Z,43.00
2018-02-16T09:24:12.722Z,43.00
2018-02-16T09:26:16.098Z,43.00
2018-02-16T09:28:19.472Z,43.00
2018-02-16T09:30:22.874Z,43.00
2018-02-16T09:32:26.248Z,43.00
2018-02-16T09:34:29.668Z,43.00
2018-02-16T09:36:33.139Z,43.00
2018-02-16T09:38:37.364Z,43.00
2018-02-16T09:40:40.753Z,43.00
2018-02-16T09:42:44.162Z,43.00
2018-02-16T09:44:47.546Z,43.00
2018-02-16T09:46:50.931Z,43.00
2018-02-16T09:48:54.316Z,43.00
2018-02-16T09:50:57.741Z,43.00
2018-02-16T09:53:01.213Z,43.00
2018-02-16T09:55:04.664Z,43.00
2018-02-16T09:57:08.065Z,43.00
2018-02-16T09:59:12.254Z,43.00
2018-02-16T10:01:15.669Z,43.00
2018-02-16T10:03:19.202Z,43.00
2018-02-16T10:05:22.605Z,43.00
2018-02-16T10:07:26.021Z,43.00
2018-02-16T10:09:29.416Z,43.00
2018-02-16T10:11:33.605Z,43.00
2018-02-16T10:13:37.012Z,43.00
2018-02-16T10:15:40.456Z,43.00
2018-02-16T10:17:43.826Z,43.00
2018-02-16T10:19:47.361Z,43.00
2018-02-16T10:21:50.849Z,43.00
2018-02-16T10:23:54.242Z,43.00
2018-02-16T10:25:57.705Z,42.90
2018-02-16T10:28:01.939Z,42.90
2018-02-16T10:30:05.477Z,42.90
2018-02-16T10:32:08.864Z,42.90
2018-02-16T10:34:12.274Z,42.90
2018-02-16T10:36:15.951Z,42.90
2018-02-16T10:38:19.527Z,42.80
2018-02-16T10:40:23.015Z,42.90
2018-02-16T10:42:26.415Z,42.90
2018-02-16T10:44:30.047Z,42.90
2018-02-16T10:46:33.526Z,43.00
2018-02-16T10:48:37.095Z,43.00
2018-02-16T10:50:40.693Z,43.00
2018-02-16T10:52:44.134Z,43.00
2018-02-16T10:54:47.556Z,43.00
2018-02-16T10:56:51.782Z,43.00
2018-02-16T10:58:55.258Z,42.90
2018-02-16T11:01:04.979Z,42.90
2018-02-16T11:03:13.855Z,42.90
2018-02-16T11:08:03.669Z,42.90
2018-02-16T11:10:07.175Z,43.00
2018-02-16T11:12:10.890Z,42.90
2018-02-16T11:14:14.392Z,42.80
2018-02-16T11:16:17.961Z,42.70
2018-02-16T11:18:21.552Z,43.20
2018-02-16T11:20:25.015Z,42.60
2018-02-16T11:22:29.222Z,42.60
2018-02-16T11:24:32.675Z,42.60
2018-02-16T11:26:36.165Z,42.50
2018-02-16T11:28:39.742Z,42.50
2018-02-16T11:30:43.217Z,42.40
2018-02-16T11:32:46.738Z,42.40
2018-02-16T11:34:50.131Z,42.30
2018-02-16T11:36:54.410Z,42.20
2018-02-16T11:38:57.882Z,42.20
2018-02-16T11:41:01.420Z,42.10
2018-02-16T11:43:04.927Z,42.20
2018-02-16T11:45:08.459Z,42.20
2018-02-16T11:47:12.700Z,42.40
2018-02-16T11:49:16.268Z,42.20
2018-02-16T11:51:20.608Z,42.20
2018-02-16T11:53:24.190Z,42.20
2018-02-16T11:55:28.459Z,42.30
2018-02-16T11:57:31.980Z,42.30
2018-02-16T11:59:35.628Z,42.20
2018-02-16T12:01:39.171Z,42.20
2018-02-16T12:03:42.690Z,42.20
2018-02-16T12:05:47.029Z,42.10
2018-02-16T12:07:50.564Z,42.00
2018-02-16T12:09:54.076Z,42.00
2018-02-16T12:11:57.624Z,41.80
2018-02-16T12:14:01.392Z,41.80
2018-02-16T12:16:05.321Z,41.70
2018-02-16T12:18:09.053Z,41.50
2018-02-16T12:20:12.781Z,41.40
2018-02-16T12:22:16.977Z,41.30
2018-02-16T12:24:20.532Z,41.20
2018-02-16T12:26:24.155Z,41.10
2018-02-16T12:28:27.708Z,41.00
2018-02-16T12:30:31.214Z,40.90
2018-02-16T12:32:35.245Z,40.80
2018-02-16T12:34:38.758Z,40.70
2018-02-16T12:36:42.213Z,40.70
2018-02-16T12:38:45.725Z,40.60
2018-02-16T12:40:49.199Z,40.60
2018-02-16T12:42:52.676Z,40.60
2018-02-16T12:44:56.980Z,40.70
2018-02-16T12:47:01.197Z,40.60
2018-02-16T12:49:04.770Z,40.70
2018-02-16T12:51:08.269Z,40.80
2018-02-16T12:53:11.851Z,40.80
2018-02-16T12:55:15.638Z,40.70
2018-02-16T12:57:19.171Z,41.00
2018-02-16T12:59:23.673Z,41.10
2018-02-16T13:01:27.490Z,41.10
2018-02-16T13:03:31.154Z,41.50
2018-02-16T13:05:34.693Z,41.20
2018-02-16T13:07:38.235Z,41.40
2018-02-16T13:09:41.939Z,41.50
2018-02-16T13:11:45.404Z,41.40
2018-02-16T13:13:48.911Z,41.10
2018-02-16T13:15:52.515Z,41.00
2018-02-16T13:17:55.983Z,41.00
2018-02-16T13:19:59.496Z,40.90
2018-02-16T13:22:02.991Z,40.90
2018-02-16T13:24:06.514Z,40.80
2018-02-16T13:26:10.292Z,41.40
2018-02-16T13:28:13.927Z,40.80
2018-02-16T13:30:20.219Z,40.70
2018-02-16T13:32:24.608Z,40.60
2018-02-16T13:34:28.218Z,40.60
2018-02-16T13:36:31.791Z,40.50
2018-02-16T13:38:36.469Z,40.40
2018-02-16T13:40:40.194Z,40.30
2018-02-16T13:42:43.748Z,40.30
2018-02-16T13:44:47.325Z,40.30
2018-02-16T13:46:50.848Z,40.40
2018-02-16T13:48:54.356Z,40.50
2018-02-16T13:50:58.027Z,40.50
2018-02-16T13:53:02.684Z,40.60
2018-02-16T13:55:06.313Z,40.50
2018-02-16T13:57:09.908Z,40.60
2018-02-16T13:59:13.563Z,40.70
2018-02-16T14:01:17.085Z,40.70
2018-02-16T14:03:21.264Z,40.90
2018-02-16T14:05:24.639Z,40.80
2018-02-16T14:07:28.789Z,40.70
2018-02-16T14:09:32.176Z,40.70
2018-02-16T14:11:35.552Z,40.70
2018-02-16T14:13:38.955Z,40.70
2018-02-16T14:15:42.389Z,40.70
2018-02-16T14:17:45.785Z,40.70
2018-02-16T14:19:49.148Z,40.80
2018-02-16T14:21:52.772Z,40.70
2018-02-16T14:23:56.379Z,40.70
2018-02-16T14:25:59.884Z,40.70
2018-02-16T14:28:04.229Z,40.70
2018-02-16T14:30:07.917Z,40.60
2018-02-16T14:32:11.788Z,40.60
2018-02-16T14:34:15.155Z,40.60
2018-02-16T14:36:18.724Z,40.60
2018-02-16T14:38:22.141Z,40.60
2018-02-16T14:40:25.534Z,40.60
2018-02-16T14:42:28.892Z,40.60
2018-02-16T14:44:33.082Z,40.50
2018-02-16T14:46:37.564Z,40.40
2018-02-16T14:48:41.770Z,40.40
2018-02-16T14:50:45.448Z,40.50
2018-02-16T14:52:49.678Z,40.50
2018-02-16T14:54:53.710Z,40.60
2018-02-16T14:56:57.090Z,40.70
2018-02-16T14:59:00.513Z,40.70
2018-02-16T15:01:04.648Z,41.10
2018-02-16T15:03:08.038Z,40.70
2018-02-16T15:05:12.277Z,40.70
2018-02-16T15:07:15.918Z,40.70
2018-02-16T15:09:20.115Z,40.70
2018-02-16T15:11:23.596Z,40.70
2018-02-16T15:13:27.570Z,40.70
2018-02-16T15:15:31.159Z,40.60
2018-02-16T15:17:35.293Z,40.30
2018-02-16T15:19:39.177Z,40.30
2018-02-16T15:21:42.926Z,40.30
2018-02-16T15:23:46.282Z,40.30
2018-02-16T15:25:49.661Z,40.20
2018-02-16T15:27:53.032Z,40.20
2018-02-16T15:29:57.166Z,40.00
2018-02-16T15:32:00.535Z,40.00
2018-02-16T15:34:04.010Z,39.80
2018-02-16T15:36:07.522Z,39.60
2018-02-16T15:38:11.128Z,39.50
2018-02-16T15:40:15.096Z,39.40
2018-02-16T15:42:18.546Z,39.20
2018-02-16T15:44:22.212Z,39.10
2018-02-16T15:46:25.650Z,39.00
2018-02-16T15:48:29.045Z,39.30
2018-02-16T15:50:32.437Z,38.90
2018-02-16T15:52:35.914Z,38.80
2018-02-16T15:54:39.376Z,38.80
2018-02-16T15:56:42.793Z,38.90
2018-02-16T15:58:47.033Z,39.10
2018-02-16T16:00:50.462Z,38.90
2018-02-16T16:02:54.075Z,39.10
2018-02-16T16:04:58.278Z,39.40
2018-02-16T16:07:01.642Z,39.30
2018-02-16T16:09:04.617Z,40.00
2018-02-16T16:11:10.553Z,39.20
2018-02-16T16:13:14.034Z,39.10
2018-02-16T16:15:17.447Z,39.00
2018-02-16T16:17:20.842Z,39.00
2018-02-16T16:19:24.266Z,39.00
2018-02-16T16:21:27.726Z,39.00
2018-02-16T16:23:31.181Z,39.00
2018-02-16T16:25:34.830Z,38.90
2018-02-16T16:27:38.695Z,38.90
2018-02-16T16:29:42.135Z,38.90
2018-02-16T16:31:45.598Z,38.90
2018-02-16T16:33:49.113Z,39.00
2018-02-16T16:35:52.497Z,39.00
2018-02-16T16:37:55.928Z,39.20
2018-02-16T16:39:59.394Z,39.20
2018-02-16T16:42:02.751Z,39.30
2018-02-16T16:44:06.424Z,39.60
2018-02-16T16:46:09.867Z,39.90
2018-02-16T16:48:13.287Z,40.00
2018-02-16T16:50:16.721Z,39.80
2018-02-16T16:52:21.201Z,39.80
2018-02-16T16:54:24.602Z,39.80
2018-02-16T16:56:28.777Z,39.90
2018-02-16T16:58:32.274Z,39.90
2018-02-16T17:00:36.606Z,40.00
2018-02-16T17:02:40.310Z,40.00
2018-02-16T17:04:43.688Z,40.70
2018-02-16T17:06:47.188Z,40.10
2018-02-16T17:08:50.541Z,40.30
2018-02-16T17:10:54.700Z,40.30
2018-02-16T17:12:58.154Z,40.30
2018-02-16T17:15:01.580Z,40.40
2018-02-16T17:17:04.932Z,40.40
2018-02-16T17:19:08.392Z,40.40
2018-02-16T17:21:11.766Z,40.40
2018-02-16T17:23:15.192Z,40.50
2018-02-16T17:25:19.359Z,40.50
2018-02-16T17:27:22.821Z,40.50
2018-02-16T17:29:26.273Z,40.50
2018-02-16T17:31:29.707Z,40.50
2018-02-16T17:33:33.160Z,40.60
2018-02-16T17:35:36.530Z,40.60
2018-02-16T17:37:39.907Z,40.60
2018-02-16T17:39:43.150Z,40.60
2018-02-16T17:41:47.300Z,40.60
2018-02-16T17:43:50.733Z,40.60
2018-02-16T17:45:54.171Z,40.70
2018-02-16T17:47:57.582Z,40.60
2018-02-16T17:50:01.042Z,40.60
2018-02-16T17:52:05.179Z,40.70
2018-02-16T17:54:08.559Z,40.60
2018-02-16T17:56:11.953Z,40.60
2018-02-16T17:58:15.336Z,40.70
2018-02-16T18:00:18.574Z,40.70
2018-02-16T18:02:22.529Z,40.80
2018-02-16T18:04:25.696Z,40.80
2018-02-16T18:06:29.707Z,41.40
2018-02-16T18:08:33.924Z,40.70
2018-02-16T18:10:38.028Z,40.80
2018-02-16T18:12:41.601Z,40.70
2018-02-16T18:14:44.974Z,40.70
2018-02-16T18:16:48.371Z,40.70
2018-02-16T18:18:51.755Z,40.80
2018-02-16T18:20:55.145Z,40.70
2018-02-16T18:22:59.322Z,41.30
2018-02-16T18:25:02.706Z,40.70
2018-02-16T18:27:06.222Z,40.70
2018-02-16T18:29:09.711Z,40.60
2018-02-16T18:31:13.164Z,40.60
2018-02-16T18:33:17.387Z,40.40
2018-02-16T18:35:20.818Z,40.40
2018-02-16T18:37:24.342Z,40.30
2018-02-16T18:39:27.762Z,40.20
2018-02-16T18:41:31.194Z,40.10
2018-02-16T18:43:34.614Z,39.90
2018-02-16T18:45:38.677Z,39.80
2018-02-16T18:47:42.279Z,39.80
2018-02-16T18:49:47.053Z,39.50
2018-02-16T18:51:50.423Z,39.50
2018-02-16T18:53:53.974Z,39.40
2018-02-16T18:55:58.244Z,39.20
2018-02-16T18:58:01.653Z,39.20
2018-02-16T19:00:05.560Z,39.10
2018-02-16T19:02:09.054Z,39.00
2018-02-16T19:04:12.423Z,38.90
2018-02-16T19:06:15.977Z,38.70
2018-02-16T19:08:19.435Z,38.70
2018-02-16T19:10:22.980Z,38.80
2018-02-16T19:12:26.481Z,38.70
2018-02-16T19:14:29.888Z,38.70
2018-02-16T19:16:33.400Z,38.70
2018-02-16T19:18:36.936Z,38.70
2018-02-16T19:20:40.591Z,38.70
2018-02-16T19:22:44.055Z,38.70
2018-02-16T19:24:47.427Z,38.80
2018-02-16T19:26:51.662Z,38.80
2018-02-16T19:28:55.094Z,38.80
2018-02-16T19:30:58.583Z,38.80
2018-02-16T19:33:02.870Z,39.00
2018-02-16T19:35:08.169Z,39.00
2018-02-16T19:37:13.156Z,39.10
2018-02-16T19:39:17.868Z,39.00
2018-02-16T19:41:22.702Z,38.90
2018-02-16T19:43:27.333Z,39.00
2018-02-16T19:45:31.092Z,39.10
2018-02-16T19:47:35.593Z,39.10
2018-02-16T19:49:39.705Z,39.10
2018-02-16T19:51:44.197Z,39.20
2018-02-16T19:53:48.360Z,39.20
2018-02-16T19:55:52.797Z,39.30
2018-02-16T19:57:56.746Z,39.20
2018-02-16T20:00:00.264Z,39.30
2018-02-16T20:02:04.749Z,39.40
2018-02-16T20:04:08.243Z,39.40
2018-02-16T20:06:12.114Z,39.50
2018-02-16T20:08:15.577Z,39.50
2018-02-16T20:10:20.941Z,39.50
2018-02-16T20:12:24.411Z,39.50
2018-02-16T20:14:27.821Z,39.60
2018-02-16T20:16:31.777Z,39.60
2018-02-16T20:18:35.245Z,39.70
2018-02-16T20:20:39.441Z,39.80
2018-02-16T20:22:42.806Z,39.80
2018-02-16T20:24:47.391Z,39.80
2018-02-16T20:26:50.820Z,39.80
2018-02-16T20:28:54.952Z,40.00
2018-02-16T20:30:58.309Z,40.00
2018-02-16T20:33:02.323Z,40.00
2018-02-16T20:35:06.477Z,40.00
2018-02-16T20:37:09.888Z,40.00
2018-02-16T20:39:13.603Z,40.00
2018-02-16T20:41:17.320Z,40.00
2018-02-16T20:43:20.754Z,40.00
2018-02-16T20:45:24.119Z,40.00
2018-02-16T20:47:27.512Z,40.00
2018-02-16T20:49:30.904Z,40.10
2018-02-16T20:51:35.073Z,40.20
2018-02-16T20:53:38.542Z,40.10
2018-02-16T20:55:41.934Z,40.20
2018-02-16T20:57:45.320Z,40.10
2018-02-16T20:59:48.826Z,40.10
2018-02-16T21:01:52.244Z,40.20
2018-02-16T21:03:55.652Z,40.30
2018-02-16T21:05:59.821Z,40.30
2018-02-16T21:08:03.347Z,40.30
2018-02-16T21:10:06.729Z,40.30
2018-02-16T21:12:10.420Z,40.30
2018-02-16T21:14:13.826Z,40.30
2018-02-16T21:16:17.191Z,40.30
2018-02-16T21:18:20.559Z,40.30
2018-02-16T21:20:24.025Z,40.30
2018-02-16T21:22:27.400Z,40.30
2018-02-16T21:24:31.693Z,40.50
2018-02-16T21:26:35.257Z,40.40
2018-02-16T21:28:38.706Z,40.40
2018-02-16T21:30:42.147Z,40.50
2018-02-16T21:32:45.652Z,40.50
2018-02-16T21:34:48.890Z,40.50
2018-02-16T21:36:53.072Z,40.20
2018-02-16T21:38:56.582Z,40.60
2018-02-16T21:40:59.948Z,40.60
2018-02-16T21:43:03.334Z,40.60
2018-02-16T21:45:06.735Z,40.60
2018-02-16T21:47:10.128Z,40.70
2018-02-16T21:49:13.492Z,40.70
2018-02-16T21:51:16.893Z,40.70
2018-02-16T21:53:20.309Z,40.70
2018-02-16T21:55:23.940Z,40.70
2018-02-16T21:57:27.383Z,40.70
2018-02-16T21:59:30.983Z,40.70
2018-02-16T22:01:34.774Z,40.70
2018-02-16T22:03:38.198Z,40.90
2018-02-16T22:05:41.605Z,40.90
2018-02-16T22:07:44.983Z,40.90
2018-02-16T22:09:48.356Z,40.90
2018-02-16T22:11:51.781Z,41.00
2018-02-16T22:13:55.180Z,41.00
2018-02-16T22:15:58.547Z,41.10
2018-02-16T22:18:01.941Z,41.10
2018-02-16T22:20:05.341Z,41.20
2018-02-16T22:22:08.781Z,41.10
2018-02-16T22:24:12.131Z,41.20
2018-02-16T22:26:15.339Z,41.10
2018-02-16T22:28:19.520Z,41.50
2018-02-16T22:30:22.915Z,41.20
2018-02-16T22:32:26.302Z,41.20
2018-02-16T22:34:30.445Z,41.20
2018-02-16T22:36:34.583Z,41.30
2018-02-16T22:38:37.982Z,41.30
2018-02-16T22:40:41.342Z,41.30
2018-02-16T22:42:45.300Z,41.30
2018-02-16T22:44:48.689Z,41.30
2018-02-16T22:46:52.053Z,41.30
2018-02-16T22:48:55.530Z,41.30
2018-02-16T22:50:58.918Z,41.30
2018-02-16T22:53:03.041Z,41.50
2018-02-16T22:55:07.214Z,41.40
2018-02-16T22:57:10.590Z,41.40
2018-02-16T22:59:13.960Z,41.50
2018-02-16T23:01:17.324Z,41.50
2018-02-16T23:03:21.463Z,41.50
2018-02-16T23:05:25.243Z,41.50
2018-02-16T23:07:28.691Z,41.50
2018-02-16T23:09:32.053Z,41.60
2018-02-16T23:11:35.421Z,41.50
2018-02-16T23:13:38.809Z,41.60
2018-02-16T23:15:42.226Z,41.60
2018-02-16T23:17:45.596Z,41.60
2018-02-16T23:19:48.965Z,41.50
2018-02-16T23:21:52.360Z,41.60
2018-02-16T23:23:56.493Z,41.70
2018-02-16T23:25:59.882Z,41.60
2018-02-16T23:28:03.245Z,41.60
2018-02-16T23:30:06.644Z,41.60
2018-02-16T23:32:10.840Z,41.60
2018-02-16T23:34:14.254Z,41.60
2018-02-16T23:36:18.377Z,41.50
2018-02-16T23:38:21.748Z,41.50
2018-02-16T23:40:25.105Z,41.60
2018-02-16T23:42:28.452Z,41.60
2018-02-16T23:44:31.849Z,41.50
2018-02-16T23:46:35.225Z,41.60
2018-02-16T23:48:38.583Z,41.60
2018-02-16T23:50:41.962Z,41.60
2018-02-16T23:52:46.108Z,41.60
2018-02-16T23:54:49.469Z,41.60
2018-02-16T23:56:53.415Z,41.60
2018-02-16T23:58:56.794Z,41.60
